sensor_id;sensor_type;location;lat;lon;timestamp;temperature;humidity
6439;DHT22;3252;52.540;13.290;2023-08-07T00:01:21;15.10;99.90
6439;DHT22;3252;52.540;13.290;2023-08-07T00:03:34;15.10;99.90
6439;DHT22;3252;52.540;13.290;2023-08-07T00:05:40;15.20;99.90
6439;DHT22;3252;52.540;13.290;2023-08-07T00:07:54;15.10;99.90
6439;DHT22;3252;52.540;13.290;2023-08-07T00:09:59;15.20;99.90
6439;DHT22;3252;52.540;13.290;2023-08-07T00:12:13;15.20;99.90
6439;DHT22;3252;52.540;13.290;2023-08-07T00:14:29;15.20;99.90
6439;DHT22;3252;52.540;13.290;2023-08-07T00:16:51;15.20;99.90
6439;DHT22;3252;52.540;13.290;2023-08-07T00:19:11;15.20;99.90
6439;DHT22;3252;52.540;13.290;2023-08-07T00:21:29;15.20;99.90
6439;DHT22;3252;52.540;13.290;2023-08-07T00:23:37;15.20;99.90
6439;DHT22;3252;52.540;13.290;2023-08-07T00:25:51;15.30;99.90
6439;DHT22;3252;52.540;13.290;2023-08-07T00:28:00;15.30;99.90
6439;DHT22;3252;52.540;13.290;2023-08-07T00:30:27;15.30;99.90
6439;DHT22;3252;52.540;13.290;2023-08-07T00:32:58;15.30;99.90
6439;DHT22;3252;52.540;13.290;2023-08-07T00:35:23;15.30;99.90
6439;DHT22;3252;52.540;13.290;2023-08-07T00:37:52;15.30;99.90
6439;DHT22;3252;52.540;13.290;2023-08-07T00:39:58;15.40;99.90
6439;DHT22;3252;52.540;13.290;2023-08-07T00:42:08;15.40;99.90
6439;DHT22;3252;52.540;13.290;2023-08-07T00:44:29;15.40;99.90
6439;DHT22;3252;52.540;13.290;2023-08-07T00:46:41;15.30;99.90
6439;DHT22;3252;52.540;13.290;2023-08-07T00:48:47;15.40;99.90
6439;DHT22;3252;52.540;13.290;2023-08-07T00:51:04;15.40;99.90
6439;DHT22;3252;52.540;13.290;2023-08-07T00:53:14;15.30;99.90
6439;DHT22;3252;52.540;13.290;2023-08-07T00:55:19;15.30;99.90
6439;DHT22;3252;52.540;13.290;2023-08-07T00:57:49;15.30;99.90
6439;DHT22;3252;52.540;13.290;2023-08-07T00:59:56;15.30;99.90
6439;DHT22;3252;52.540;13.290;2023-08-07T01:02:00;15.30;99.90
6439;DHT22;3252;52.540;13.290;2023-08-07T01:04:03;15.30;99.90
6439;DHT22;3252;52.540;13.290;2023-08-07T01:06:13;15.30;99.90
6439;DHT22;3252;52.540;13.290;2023-08-07T01:08:17;15.30;99.90
6439;DHT22;3252;52.540;13.290;2023-08-07T01:10:40;15.30;99.90
6439;DHT22;3252;52.540;13.290;2023-08-07T01:12:52;15.30;99.90
6439;DHT22;3252;52.540;13.290;2023-08-07T01:15:16;15.30;99.90
6439;DHT22;3252;52.540;13.290;2023-08-07T01:17:28;15.30;99.90
6439;DHT22;3252;52.540;13.290;2023-08-07T01:19:36;15.30;99.90
6439;DHT22;3252;52.540;13.290;2023-08-07T01:21:48;15.30;99.90
6439;DHT22;3252;52.540;13.290;2023-08-07T01:23:55;15.30;99.90
6439;DHT22;3252;52.540;13.290;2023-08-07T01:26:05;15.30;99.90
6439;DHT22;3252;52.540;13.290;2023-08-07T01:28:31;15.20;99.90
6439;DHT22;3252;52.540;13.290;2023-08-07T01:30:55;15.20;99.90
6439;DHT22;3252;52.540;13.290;2023-08-07T01:33:17;15.20;99.90
6439;DHT22;3252;52.540;13.290;2023-08-07T01:35:27;15.20;99.90
6439;DHT22;3252;52.540;13.290;2023-08-07T01:37:42;15.20;99.90
6439;DHT22;3252;52.540;13.290;2023-08-07T01:39:50;15.20;99.90
6439;DHT22;3252;52.540;13.290;2023-08-07T01:44:22;15.10;99.90
6439;DHT22;3252;52.540;13.290;2023-08-07T01:46:39;15.10;99.90
6439;DHT22;3252;52.540;13.290;2023-08-07T01:49:10;15.10;99.90
6439;DHT22;3252;52.540;13.290;2023-08-07T01:51:14;15.10;99.90
6439;DHT22;3252;52.540;13.290;2023-08-07T01:53:28;15.10;99.90
6439;DHT22;3252;52.540;13.290;2023-08-07T01:55:41;15.10;99.90
6439;DHT22;3252;52.540;13.290;2023-08-07T01:57:53;15.10;99.90
6439;DHT22;3252;52.540;13.290;2023-08-07T02:00:00;15.10;99.90
6439;DHT22;3252;52.540;13.290;2023-08-07T02:02:21;15.10;99.90
6439;DHT22;3252;52.540;13.290;2023-08-07T02:04:31;15.00;99.90
6439;DHT22;3252;52.540;13.290;2023-08-07T02:07:16;15.00;99.90
6439;DHT22;3252;52.540;13.290;2023-08-07T02:09:50;15.00;99.90
6439;DHT22;3252;52.540;13.290;2023-08-07T02:12:00;15.00;99.90
6439;DHT22;3252;52.540;13.290;2023-08-07T02:14:15;15.00;99.90
6439;DHT22;3252;52.540;13.290;2023-08-07T02:16:23;15.00;99.90
6439;DHT22;3252;52.540;13.290;2023-08-07T02:18:43;15.00;99.90
6439;DHT22;3252;52.540;13.290;2023-08-07T02:20:57;15.00;99.90
6439;DHT22;3252;52.540;13.290;2023-08-07T02:23:31;15.00;99.90
6439;DHT22;3252;52.540;13.290;2023-08-07T02:25:42;15.00;99.90
6439;DHT22;3252;52.540;13.290;2023-08-07T02:28:05;15.00;99.90
6439;DHT22;3252;52.540;13.290;2023-08-07T02:30:43;15.10;99.90
6439;DHT22;3252;52.540;13.290;2023-08-07T02:33:02;15.10;99.90
6439;DHT22;3252;52.540;13.290;2023-08-07T02:35:17;15.10;99.90
6439;DHT22;3252;52.540;13.290;2023-08-07T02:37:22;15.10;99.90
6439;DHT22;3252;52.540;13.290;2023-08-07T02:39:27;15.10;99.90
6439;DHT22;3252;52.540;13.290;2023-08-07T02:41:34;15.20;99.90
6439;DHT22;3252;52.540;13.290;2023-08-07T02:43:39;15.10;99.90
6439;DHT22;3252;52.540;13.290;2023-08-07T02:45:57;15.20;99.90
6439;DHT22;3252;52.540;13.290;2023-08-07T02:48:05;15.20;99.90
6439;DHT22;3252;52.540;13.290;2023-08-07T02:50:17;15.20;99.90
6439;DHT22;3252;52.540;13.290;2023-08-07T02:52:36;15.20;99.90
6439;DHT22;3252;52.540;13.290;2023-08-07T02:54:43;15.20;99.90
6439;DHT22;3252;52.540;13.290;2023-08-07T02:57:08;15.20;99.90
6439;DHT22;3252;52.540;13.290;2023-08-07T02:59:28;15.20;99.90
6439;DHT22;3252;52.540;13.290;2023-08-07T03:01:43;15.20;99.90
6439;DHT22;3252;52.540;13.290;2023-08-07T03:03:52;15.20;99.90
6439;DHT22;3252;52.540;13.290;2023-08-07T03:05:59;15.20;99.90
6439;DHT22;3252;52.540;13.290;2023-08-07T03:08:28;15.30;99.90
6439;DHT22;3252;52.540;13.290;2023-08-07T03:10:49;15.20;99.90
6439;DHT22;3252;52.540;13.290;2023-08-07T03:13:26;15.20;99.90
6439;DHT22;3252;52.540;13.290;2023-08-07T03:18:16;15.30;99.90
6439;DHT22;3252;52.540;13.290;2023-08-07T03:20:42;15.30;99.90
6439;DHT22;3252;52.540;13.290;2023-08-07T03:22:55;15.30;99.90
6439;DHT22;3252;52.540;13.290;2023-08-07T03:26:02;15.30;99.90
6439;DHT22;3252;52.540;13.290;2023-08-07T03:28:10;15.40;99.90
6439;DHT22;3252;52.540;13.290;2023-08-07T03:30:28;15.30;99.90
6439;DHT22;3252;52.540;13.290;2023-08-07T03:36:02;15.30;99.90
6439;DHT22;3252;52.540;13.290;2023-08-07T03:38:25;15.30;99.90
6439;DHT22;3252;52.540;13.290;2023-08-07T03:40:46;15.30;99.90
6439;DHT22;3252;52.540;13.290;2023-08-07T03:43:07;15.30;99.90
6439;DHT22;3252;52.540;13.290;2023-08-07T03:45:41;15.40;99.90
6439;DHT22;3252;52.540;13.290;2023-08-07T03:48:05;15.30;99.90
6439;DHT22;3252;52.540;13.290;2023-08-07T03:50:13;15.40;99.90
6439;DHT22;3252;52.540;13.290;2023-08-07T03:52:23;15.30;99.90
6439;DHT22;3252;52.540;13.290;2023-08-07T03:55:03;15.30;99.90
6439;DHT22;3252;52.540;13.290;2023-08-07T03:57:13;15.30;99.90
6439;DHT22;3252;52.540;13.290;2023-08-07T03:59:32;15.30;99.90
6439;DHT22;3252;52.540;13.290;2023-08-07T04:01:45;15.30;99.90
6439;DHT22;3252;52.540;13.290;2023-08-07T04:03:56;15.30;99.90
6439;DHT22;3252;52.540;13.290;2023-08-07T04:06:30;15.30;99.90
6439;DHT22;3252;52.540;13.290;2023-08-07T04:08:36;15.30;99.90
6439;DHT22;3252;52.540;13.290;2023-08-07T04:10:41;15.30;99.90
6439;DHT22;3252;52.540;13.290;2023-08-07T04:12:57;15.30;99.90
6439;DHT22;3252;52.540;13.290;2023-08-07T04:15:12;15.30;99.90
6439;DHT22;3252;52.540;13.290;2023-08-07T04:20:16;15.30;99.90
6439;DHT22;3252;52.540;13.290;2023-08-07T04:23:07;15.30;99.90
6439;DHT22;3252;52.540;13.290;2023-08-07T04:25:20;15.30;99.90
6439;DHT22;3252;52.540;13.290;2023-08-07T04:27:27;15.30;99.90
6439;DHT22;3252;52.540;13.290;2023-08-07T04:29:35;15.30;99.90
6439;DHT22;3252;52.540;13.290;2023-08-07T04:31:45;15.30;99.90
6439;DHT22;3252;52.540;13.290;2023-08-07T04:33:59;15.30;99.90
6439;DHT22;3252;52.540;13.290;2023-08-07T04:36:10;15.40;99.90
6439;DHT22;3252;52.540;13.290;2023-08-07T04:38:17;15.40;99.90
6439;DHT22;3252;52.540;13.290;2023-08-07T04:40:27;15.40;99.90
6439;DHT22;3252;52.540;13.290;2023-08-07T04:42:39;15.30;99.90
6439;DHT22;3252;52.540;13.290;2023-08-07T04:45:10;15.30;99.90
6439;DHT22;3252;52.540;13.290;2023-08-07T04:47:31;15.30;99.90
6439;DHT22;3252;52.540;13.290;2023-08-07T04:49:53;15.40;99.90
6439;DHT22;3252;52.540;13.290;2023-08-07T04:52:31;15.40;99.90
6439;DHT22;3252;52.540;13.290;2023-08-07T04:55:32;15.40;99.90
6439;DHT22;3252;52.540;13.290;2023-08-07T04:58:05;15.40;99.90
6439;DHT22;3252;52.540;13.290;2023-08-07T05:00:27;15.30;99.90
6439;DHT22;3252;52.540;13.290;2023-08-07T05:03:04;15.40;99.90
6439;DHT22;3252;52.540;13.290;2023-08-07T05:08:19;15.40;99.90
6439;DHT22;3252;52.540;13.290;2023-08-07T05:10:25;15.40;99.90
6439;DHT22;3252;52.540;13.290;2023-08-07T05:12:44;15.40;99.90
6439;DHT22;3252;52.540;13.290;2023-08-07T05:15:16;15.40;99.90
6439;DHT22;3252;52.540;13.290;2023-08-07T05:17:24;15.30;99.90
6439;DHT22;3252;52.540;13.290;2023-08-07T05:19:49;15.40;99.90
6439;DHT22;3252;52.540;13.290;2023-08-07T05:22:17;15.40;99.90
6439;DHT22;3252;52.540;13.290;2023-08-07T05:24:38;15.40;99.90
6439;DHT22;3252;52.540;13.290;2023-08-07T05:26:53;15.40;99.90
6439;DHT22;3252;52.540;13.290;2023-08-07T05:29:17;15.40;99.90
6439;DHT22;3252;52.540;13.290;2023-08-07T05:31:35;15.30;99.90
6439;DHT22;3252;52.540;13.290;2023-08-07T05:34:11;15.40;99.90
6439;DHT22;3252;52.540;13.290;2023-08-07T05:36:28;15.50;99.90
6439;DHT22;3252;52.540;13.290;2023-08-07T05:38:46;15.50;99.90
6439;DHT22;3252;52.540;13.290;2023-08-07T05:41:51;15.40;99.90
6439;DHT22;3252;52.540;13.290;2023-08-07T05:43:48;15.50;99.90
6439;DHT22;3252;52.540;13.290;2023-08-07T05:45:58;15.50;99.90
6439;DHT22;3252;52.540;13.290;2023-08-07T05:48:11;15.50;99.90
6439;DHT22;3252;52.540;13.290;2023-08-07T05:50:33;15.50;99.90
6439;DHT22;3252;52.540;13.290;2023-08-07T05:52:58;15.60;99.90
6439;DHT22;3252;52.540;13.290;2023-08-07T05:55:14;15.60;99.90
6439;DHT22;3252;52.540;13.290;2023-08-07T05:57:23;15.60;99.90
6439;DHT22;3252;52.540;13.290;2023-08-07T05:59:34;15.60;99.90
6439;DHT22;3252;52.540;13.290;2023-08-07T06:01:40;15.60;99.90
6439;DHT22;3252;52.540;13.290;2023-08-07T06:03:53;15.70;99.90
6439;DHT22;3252;52.540;13.290;2023-08-07T06:06:06;15.70;99.90
6439;DHT22;3252;52.540;13.290;2023-08-07T06:10:38;15.80;99.90
6439;DHT22;3252;52.540;13.290;2023-08-07T06:12:53;15.80;99.90
6439;DHT22;3252;52.540;13.290;2023-08-07T06:14:55;15.90;99.90
6439;DHT22;3252;52.540;13.290;2023-08-07T06:16:58;15.90;99.90
6439;DHT22;3252;52.540;13.290;2023-08-07T06:19:02;15.90;99.90
6439;DHT22;3252;52.540;13.290;2023-08-07T06:21:36;15.90;99.90
6439;DHT22;3252;52.540;13.290;2023-08-07T06:23:52;16.00;99.90
6439;DHT22;3252;52.540;13.290;2023-08-07T06:26:02;16.00;99.90
6439;DHT22;3252;52.540;13.290;2023-08-07T06:28:11;16.10;99.90
6439;DHT22;3252;52.540;13.290;2023-08-07T06:30:38;16.10;99.90
6439;DHT22;3252;52.540;13.290;2023-08-07T06:33:05;16.10;99.90
6439;DHT22;3252;52.540;13.290;2023-08-07T06:35:15;16.20;99.90
6439;DHT22;3252;52.540;13.290;2023-08-07T06:37:25;16.20;99.90
6439;DHT22;3252;52.540;13.290;2023-08-07T06:39:36;16.20;99.90
6439;DHT22;3252;52.540;13.290;2023-08-07T06:41:39;16.30;99.90
6439;DHT22;3252;52.540;13.290;2023-08-07T06:43:55;16.30;99.90
6439;DHT22;3252;52.540;13.290;2023-08-07T06:46:01;16.30;99.90
6439;DHT22;3252;52.540;13.290;2023-08-07T06:48:44;16.40;99.90
6439;DHT22;3252;52.540;13.290;2023-08-07T06:50:52;16.40;99.90
6439;DHT22;3252;52.540;13.290;2023-08-07T06:52:55;16.40;99.90
6439;DHT22;3252;52.540;13.290;2023-08-07T06:54:59;16.50;99.90
6439;DHT22;3252;52.540;13.290;2023-08-07T06:57:04;16.50;99.90
6439;DHT22;3252;52.540;13.290;2023-08-07T06:59:10;16.60;99.90
6439;DHT22;3252;52.540;13.290;2023-08-07T07:01:16;16.60;99.90
6439;DHT22;3252;52.540;13.290;2023-08-07T07:03:25;16.60;99.90
6439;DHT22;3252;52.540;13.290;2023-08-07T07:05:29;16.70;99.90
6439;DHT22;3252;52.540;13.290;2023-08-07T07:07:38;16.80;99.90
6439;DHT22;3252;52.540;13.290;2023-08-07T07:09:45;16.80;99.90
6439;DHT22;3252;52.540;13.290;2023-08-07T07:12:33;16.90;99.90
6439;DHT22;3252;52.540;13.290;2023-08-07T07:14:38;17.00;99.90
6439;DHT22;3252;52.540;13.290;2023-08-07T07:16:44;17.00;99.90
6439;DHT22;3252;52.540;13.290;2023-08-07T07:18:49;17.10;99.90
6439;DHT22;3252;52.540;13.290;2023-08-07T07:21:09;17.10;99.90
6439;DHT22;3252;52.540;13.290;2023-08-07T07:23:15;17.20;99.90
6439;DHT22;3252;52.540;13.290;2023-08-07T07:25:24;17.20;99.90
6439;DHT22;3252;52.540;13.290;2023-08-07T07:27:34;17.20;99.90
6439;DHT22;3252;52.540;13.290;2023-08-07T07:29:47;17.30;99.90
6439;DHT22;3252;52.540;13.290;2023-08-07T07:31:53;17.30;99.90
6439;DHT22;3252;52.540;13.290;2023-08-07T07:33:59;17.30;99.90
6439;DHT22;3252;52.540;13.290;2023-08-07T07:36:06;17.30;99.90
6439;DHT22;3252;52.540;13.290;2023-08-07T07:38:11;17.30;99.90
6439;DHT22;3252;52.540;13.290;2023-08-07T07:40:20;17.30;99.90
6439;DHT22;3252;52.540;13.290;2023-08-07T07:42:28;17.40;99.90
6439;DHT22;3252;52.540;13.290;2023-08-07T07:44:34;17.40;99.90
6439;DHT22;3252;52.540;13.290;2023-08-07T07:46:45;17.40;99.90
6439;DHT22;3252;52.540;13.290;2023-08-07T07:48:51;17.50;99.90
6439;DHT22;3252;52.540;13.290;2023-08-07T07:50:58;17.50;99.90
6439;DHT22;3252;52.540;13.290;2023-08-07T07:53:07;17.50;99.90
6439;DHT22;3252;52.540;13.290;2023-08-07T07:55:13;17.50;99.90
6439;DHT22;3252;52.540;13.290;2023-08-07T07:57:16;17.60;99.90
6439;DHT22;3252;52.540;13.290;2023-08-07T07:59:20;17.60;99.90
6439;DHT22;3252;52.540;13.290;2023-08-07T08:01:27;17.60;99.90
6439;DHT22;3252;52.540;13.290;2023-08-07T08:03:44;17.60;99.90
6439;DHT22;3252;52.540;13.290;2023-08-07T08:05:50;17.60;99.90
6439;DHT22;3252;52.540;13.290;2023-08-07T08:07:52;17.60;99.90
6439;DHT22;3252;52.540;13.290;2023-08-07T08:09:56;17.60;99.90
6439;DHT22;3252;52.540;13.290;2023-08-07T08:12:00;17.60;99.90
6439;DHT22;3252;52.540;13.290;2023-08-07T08:14:06;17.60;99.90
6439;DHT22;3252;52.540;13.290;2023-08-07T08:16:10;17.60;99.90
6439;DHT22;3252;52.540;13.290;2023-08-07T08:18:18;17.60;99.90
6439;DHT22;3252;52.540;13.290;2023-08-07T08:20:21;17.70;99.90
6439;DHT22;3252;52.540;13.290;2023-08-07T08:22:27;17.70;99.90
6439;DHT22;3252;52.540;13.290;2023-08-07T08:24:35;17.70;99.90
6439;DHT22;3252;52.540;13.290;2023-08-07T08:26:39;17.80;99.90
6439;DHT22;3252;52.540;13.290;2023-08-07T08:28:57;17.80;99.90
6439;DHT22;3252;52.540;13.290;2023-08-07T08:31:01;17.80;99.90
6439;DHT22;3252;52.540;13.290;2023-08-07T08:33:05;17.80;99.90
6439;DHT22;3252;52.540;13.290;2023-08-07T08:35:18;17.80;99.90
6439;DHT22;3252;52.540;13.290;2023-08-07T08:37:21;17.80;99.90
6439;DHT22;3252;52.540;13.290;2023-08-07T08:39:24;17.80;99.90
6439;DHT22;3252;52.540;13.290;2023-08-07T08:41:33;17.80;99.90
6439;DHT22;3252;52.540;13.290;2023-08-07T08:43:46;17.90;99.90
6439;DHT22;3252;52.540;13.290;2023-08-07T08:45:52;17.90;99.90
6439;DHT22;3252;52.540;13.290;2023-08-07T08:48:02;18.00;99.90
6439;DHT22;3252;52.540;13.290;2023-08-07T08:50:15;18.00;99.90
6439;DHT22;3252;52.540;13.290;2023-08-07T08:52:21;18.20;99.90
6439;DHT22;3252;52.540;13.290;2023-08-07T08:54:24;18.20;99.90
6439;DHT22;3252;52.540;13.290;2023-08-07T08:56:29;18.30;99.90
6439;DHT22;3252;52.540;13.290;2023-08-07T08:58:34;18.30;99.90
6439;DHT22;3252;52.540;13.290;2023-08-07T09:00:42;18.20;99.90
6439;DHT22;3252;52.540;13.290;2023-08-07T09:02:46;18.20;99.90
6439;DHT22;3252;52.540;13.290;2023-08-07T09:04:56;18.30;99.90
6439;DHT22;3252;52.540;13.290;2023-08-07T09:06:58;18.40;99.90
6439;DHT22;3252;52.540;13.290;2023-08-07T09:09:12;18.40;99.90
6439;DHT22;3252;52.540;13.290;2023-08-07T09:11:17;18.40;99.90
6439;DHT22;3252;52.540;13.290;2023-08-07T09:13:31;18.30;99.90
6439;DHT22;3252;52.540;13.290;2023-08-07T09:15:50;18.30;99.90
6439;DHT22;3252;52.540;13.290;2023-08-07T09:17:58;18.20;99.90
6439;DHT22;3252;52.540;13.290;2023-08-07T09:20:18;18.20;99.90
6439;DHT22;3252;52.540;13.290;2023-08-07T09:22:29;18.30;99.90
6439;DHT22;3252;52.540;13.290;2023-08-07T09:24:36;18.30;99.90
6439;DHT22;3252;52.540;13.290;2023-08-07T09:26:46;18.50;99.90
6439;DHT22;3252;52.540;13.290;2023-08-07T09:28:58;18.60;99.90
6439;DHT22;3252;52.540;13.290;2023-08-07T09:31:06;18.70;99.90
6439;DHT22;3252;52.540;13.290;2023-08-07T09:33:13;18.70;99.90
6439;DHT22;3252;52.540;13.290;2023-08-07T09:35:21;18.60;99.90
6439;DHT22;3252;52.540;13.290;2023-08-07T09:37:33;18.60;99.90
6439;DHT22;3252;52.540;13.290;2023-08-07T09:39:38;18.70;99.90
6439;DHT22;3252;52.540;13.290;2023-08-07T09:41:43;18.60;99.90
6439;DHT22;3252;52.540;13.290;2023-08-07T09:43:49;18.60;99.90
6439;DHT22;3252;52.540;13.290;2023-08-07T09:45:53;18.60;99.90
6439;DHT22;3252;52.540;13.290;2023-08-07T09:48:08;18.60;99.90
6439;DHT22;3252;52.540;13.290;2023-08-07T09:50:24;18.70;99.90
6439;DHT22;3252;52.540;13.290;2023-08-07T09:52:29;18.70;99.90
6439;DHT22;3252;52.540;13.290;2023-08-07T09:54:41;18.70;99.90
6439;DHT22;3252;52.540;13.290;2023-08-07T09:56:47;18.70;99.90
6439;DHT22;3252;52.540;13.290;2023-08-07T09:58:53;18.60;99.90
6439;DHT22;3252;52.540;13.290;2023-08-07T10:00:59;18.60;99.90
6439;DHT22;3252;52.540;13.290;2023-08-07T10:03:04;18.60;99.90
6439;DHT22;3252;52.540;13.290;2023-08-07T10:05:11;18.60;99.90
6439;DHT22;3252;52.540;13.290;2023-08-07T10:07:16;18.60;99.90
6439;DHT22;3252;52.540;13.290;2023-08-07T10:09:21;18.60;99.90
6439;DHT22;3252;52.540;13.290;2023-08-07T10:11:27;18.60;99.90
6439;DHT22;3252;52.540;13.290;2023-08-07T10:13:31;18.60;99.90
6439;DHT22;3252;52.540;13.290;2023-08-07T10:15:37;18.70;99.90
6439;DHT22;3252;52.540;13.290;2023-08-07T10:17:42;18.70;99.90
6439;DHT22;3252;52.540;13.290;2023-08-07T10:19:48;18.70;99.90
6439;DHT22;3252;52.540;13.290;2023-08-07T10:21:53;18.70;99.90
6439;DHT22;3252;52.540;13.290;2023-08-07T10:23:58;18.70;99.90
6439;DHT22;3252;52.540;13.290;2023-08-07T10:26:03;18.70;99.90
6439;DHT22;3252;52.540;13.290;2023-08-07T10:28:13;18.70;99.90
6439;DHT22;3252;52.540;13.290;2023-08-07T10:30:24;18.80;99.90
6439;DHT22;3252;52.540;13.290;2023-08-07T10:32:30;18.80;99.90
6439;DHT22;3252;52.540;13.290;2023-08-07T10:34:38;18.90;99.90
6439;DHT22;3252;52.540;13.290;2023-08-07T10:36:46;18.90;99.90
6439;DHT22;3252;52.540;13.290;2023-08-07T10:38:49;18.90;99.90
6439;DHT22;3252;52.540;13.290;2023-08-07T10:41:01;18.90;99.90
6439;DHT22;3252;52.540;13.290;2023-08-07T10:43:17;19.00;99.90
6439;DHT22;3252;52.540;13.290;2023-08-07T10:45:26;19.00;99.90
6439;DHT22;3252;52.540;13.290;2023-08-07T10:47:40;18.90;99.90
6439;DHT22;3252;52.540;13.290;2023-08-07T10:49:45;19.00;99.90
6439;DHT22;3252;52.540;13.290;2023-08-07T10:51:50;18.90;99.90
6439;DHT22;3252;52.540;13.290;2023-08-07T10:53:53;19.00;99.90
6439;DHT22;3252;52.540;13.290;2023-08-07T10:55:58;19.00;99.90
6439;DHT22;3252;52.540;13.290;2023-08-07T10:58:01;19.00;99.90
6439;DHT22;3252;52.540;13.290;2023-08-07T11:00:06;18.90;99.90
6439;DHT22;3252;52.540;13.290;2023-08-07T11:02:21;18.90;99.90
6439;DHT22;3252;52.540;13.290;2023-08-07T11:04:24;18.80;99.90
6439;DHT22;3252;52.540;13.290;2023-08-07T11:06:29;18.60;99.90
6439;DHT22;3252;52.540;13.290;2023-08-07T11:08:35;18.60;99.90
6439;DHT22;3252;52.540;13.290;2023-08-07T11:10:37;18.40;99.90
6439;DHT22;3252;52.540;13.290;2023-08-07T11:12:40;18.20;99.90
6439;DHT22;3252;52.540;13.290;2023-08-07T11:14:46;18.00;99.90
6439;DHT22;3252;52.540;13.290;2023-08-07T11:16:53;17.90;99.90
6439;DHT22;3252;52.540;13.290;2023-08-07T11:18:56;17.90;99.90
6439;DHT22;3252;52.540;13.290;2023-08-07T11:20:59;17.90;99.90
6439;DHT22;3252;52.540;13.290;2023-08-07T11:23:04;17.80;99.90
6439;DHT22;3252;52.540;13.290;2023-08-07T11:25:08;17.80;99.90
6439;DHT22;3252;52.540;13.290;2023-08-07T11:27:21;17.70;99.90
6439;DHT22;3252;52.540;13.290;2023-08-07T11:29:28;17.60;99.90
6439;DHT22;3252;52.540;13.290;2023-08-07T11:31:32;17.70;99.90
6439;DHT22;3252;52.540;13.290;2023-08-07T11:36:22;17.70;99.90
6439;DHT22;3252;52.540;13.290;2023-08-07T11:38:33;17.60;99.90
6439;DHT22;3252;52.540;13.290;2023-08-07T11:40:36;17.70;99.90
6439;DHT22;3252;52.540;13.290;2023-08-07T11:42:38;17.80;99.90
6439;DHT22;3252;52.540;13.290;2023-08-07T11:44:40;17.80;99.90
6439;DHT22;3252;52.540;13.290;2023-08-07T11:46:43;17.90;99.90
6439;DHT22;3252;52.540;13.290;2023-08-07T11:48:45;18.00;99.90
6439;DHT22;3252;52.540;13.290;2023-08-07T11:50:51;18.10;99.90
6439;DHT22;3252;52.540;13.290;2023-08-07T11:52:53;18.20;99.90
6439;DHT22;3252;52.540;13.290;2023-08-07T11:55:02;18.30;99.90
6439;DHT22;3252;52.540;13.290;2023-08-07T11:57:16;18.40;99.90
6439;DHT22;3252;52.540;13.290;2023-08-07T11:59:21;18.60;99.90
6439;DHT22;3252;52.540;13.290;2023-08-07T12:01:25;18.70;99.90
6439;DHT22;3252;52.540;13.290;2023-08-07T12:03:29;18.80;99.90
6439;DHT22;3252;52.540;13.290;2023-08-07T12:05:38;18.80;99.90
6439;DHT22;3252;52.540;13.290;2023-08-07T12:07:43;18.90;99.90
6439;DHT22;3252;52.540;13.290;2023-08-07T12:09:47;18.90;99.90
6439;DHT22;3252;52.540;13.290;2023-08-07T12:11:56;18.90;99.90
6439;DHT22;3252;52.540;13.290;2023-08-07T12:14:00;18.90;99.90
6439;DHT22;3252;52.540;13.290;2023-08-07T12:16:04;18.90;99.90
6439;DHT22;3252;52.540;13.290;2023-08-07T12:18:08;18.90;99.90
6439;DHT22;3252;52.540;13.290;2023-08-07T12:20:12;19.00;99.90
6439;DHT22;3252;52.540;13.290;2023-08-07T12:22:19;19.10;99.90
6439;DHT22;3252;52.540;13.290;2023-08-07T12:24:24;19.20;99.90
6439;DHT22;3252;52.540;13.290;2023-08-07T12:26:27;19.20;99.90
6439;DHT22;3252;52.540;13.290;2023-08-07T12:28:31;19.20;99.90
6439;DHT22;3252;52.540;13.290;2023-08-07T12:30:36;19.20;99.90
6439;DHT22;3252;52.540;13.290;2023-08-07T12:32:43;19.10;99.90
6439;DHT22;3252;52.540;13.290;2023-08-07T12:34:45;19.00;99.90
6439;DHT22;3252;52.540;13.290;2023-08-07T12:36:51;19.00;99.90
6439;DHT22;3252;52.540;13.290;2023-08-07T12:38:54;18.90;99.90
6439;DHT22;3252;52.540;13.290;2023-08-07T12:40:58;18.90;99.90
6439;DHT22;3252;52.540;13.290;2023-08-07T12:43:01;18.80;99.90
6439;DHT22;3252;52.540;13.290;2023-08-07T12:45:05;18.80;99.90
6439;DHT22;3252;52.540;13.290;2023-08-07T12:47:08;18.70;99.90
6439;DHT22;3252;52.540;13.290;2023-08-07T12:49:13;18.90;99.90
6439;DHT22;3252;52.540;13.290;2023-08-07T12:51:17;18.90;99.90
6439;DHT22;3252;52.540;13.290;2023-08-07T12:53:20;18.80;99.90
6439;DHT22;3252;52.540;13.290;2023-08-07T12:55:23;18.70;99.90
6439;DHT22;3252;52.540;13.290;2023-08-07T12:57:27;18.70;99.90
6439;DHT22;3252;52.540;13.290;2023-08-07T12:59:29;18.60;99.90
6439;DHT22;3252;52.540;13.290;2023-08-07T13:01:41;18.70;99.90
6439;DHT22;3252;52.540;13.290;2023-08-07T13:03:56;18.80;99.90
6439;DHT22;3252;52.540;13.290;2023-08-07T13:06:00;18.90;99.90
6439;DHT22;3252;52.540;13.290;2023-08-07T13:08:07;19.10;99.90
6439;DHT22;3252;52.540;13.290;2023-08-07T13:10:12;19.20;99.90
6439;DHT22;3252;52.540;13.290;2023-08-07T13:12:16;19.30;99.90
6439;DHT22;3252;52.540;13.290;2023-08-07T13:14:33;19.40;99.90
6439;DHT22;3252;52.540;13.290;2023-08-07T13:16:40;19.40;99.90
6439;DHT22;3252;52.540;13.290;2023-08-07T13:18:44;19.50;99.90
6439;DHT22;3252;52.540;13.290;2023-08-07T13:20:51;19.50;99.90
6439;DHT22;3252;52.540;13.290;2023-08-07T13:22:59;19.60;99.90
6439;DHT22;3252;52.540;13.290;2023-08-07T13:25:08;19.70;99.10
6439;DHT22;3252;52.540;13.290;2023-08-07T13:27:12;19.70;98.10
6439;DHT22;3252;52.540;13.290;2023-08-07T13:29:15;19.80;97.10
6439;DHT22;3252;52.540;13.290;2023-08-07T13:31:20;19.90;95.80
6439;DHT22;3252;52.540;13.290;2023-08-07T13:33:33;19.80;96.50
6439;DHT22;3252;52.540;13.290;2023-08-07T13:35:49;19.80;96.30
6439;DHT22;3252;52.540;13.290;2023-08-07T13:37:53;19.80;95.70
6439;DHT22;3252;52.540;13.290;2023-08-07T13:39:56;19.80;96.40
6439;DHT22;3252;52.540;13.290;2023-08-07T13:42:00;19.90;96.00
6439;DHT22;3252;52.540;13.290;2023-08-07T13:44:04;19.90;96.10
6439;DHT22;3252;52.540;13.290;2023-08-07T13:46:09;20.00;96.40
6439;DHT22;3252;52.540;13.290;2023-08-07T13:48:16;20.20;95.00
6439;DHT22;3252;52.540;13.290;2023-08-07T13:50:33;20.20;94.80
6439;DHT22;3252;52.540;13.290;2023-08-07T13:52:41;20.20;94.90
6439;DHT22;3252;52.540;13.290;2023-08-07T13:54:51;20.20;95.40
6439;DHT22;3252;52.540;13.290;2023-08-07T13:57:22;20.20;96.50
6439;DHT22;3252;52.540;13.290;2023-08-07T13:59:29;20.10;95.40
6439;DHT22;3252;52.540;13.290;2023-08-07T14:01:53;19.90;95.60
6439;DHT22;3252;52.540;13.290;2023-08-07T14:03:59;19.90;95.60
6439;DHT22;3252;52.540;13.290;2023-08-07T14:06:06;19.80;95.70
6439;DHT22;3252;52.540;13.290;2023-08-07T14:08:09;19.70;96.20
6439;DHT22;3252;52.540;13.290;2023-08-07T14:10:24;19.70;96.10
6439;DHT22;3252;52.540;13.290;2023-08-07T14:12:30;19.70;96.30
6439;DHT22;3252;52.540;13.290;2023-08-07T14:14:33;19.70;96.90
6439;DHT22;3252;52.540;13.290;2023-08-07T14:16:46;19.70;96.10
6439;DHT22;3252;52.540;13.290;2023-08-07T14:18:50;19.60;95.70
6439;DHT22;3252;52.540;13.290;2023-08-07T14:25:53;19.40;95.90
6439;DHT22;3252;52.540;13.290;2023-08-07T14:27:56;19.40;96.30